createdAt,value
2024-04-19T00:00:53.154Z,9.93
2024-04-19T00:03:45.391Z,9.92
2024-04-19T00:06:39.981Z,9.90
2024-04-19T00:09:31.946Z,9.86
2024-04-19T00:12:23.913Z,9.84
2024-04-19T00:15:16.024Z,9.83
2024-04-19T00:18:10.799Z,9.81
2024-04-19T00:21:02.930Z,9.81
2024-04-19T00:23:54.945Z,9.81
2024-04-19T00:26:48.978Z,9.79
2024-04-19T00:30:01.068Z,9.75
2024-04-19T00:33:05.246Z,9.72
2024-04-19T00:36:04.485Z,9.71
2024-04-19T00:38:56.668Z,9.72
2024-04-19T00:41:54.721Z,9.73
2024-04-19T00:44:46.611Z,9.72
2024-04-19T00:47:41.915Z,9.72
2024-04-19T00:50:42.185Z,9.69
2024-04-19T00:53:35.566Z,9.66
2024-04-19T00:56:46.244Z,9.64
2024-04-19T00:59:38.949Z,9.64
2024-04-19T01:02:31.043Z,9.65
2024-04-19T01:05:42.783Z,9.63
2024-04-19T01:08:51.630Z,9.59
2024-04-19T01:11:58.953Z,9.54
2024-04-19T01:14:59.874Z,9.52
2024-04-19T01:17:54.580Z,9.49
2024-04-19T01:20:51.119Z,9.47
2024-04-19T01:23:43.551Z,9.47
2024-04-19T01:26:37.832Z,9.49
2024-04-19T01:29:29.606Z,9.50
2024-04-19T01:32:23.867Z,9.53
2024-04-19T01:35:15.716Z,9.54
2024-04-19T01:38:08.515Z,9.56
2024-04-19T01:41:20.667Z,9.59
2024-04-19T01:44:23.444Z,9.61
2024-04-19T01:47:18.477Z,9.61
2024-04-19T01:50:11.398Z,9.60
2024-04-19T01:53:03.898Z,9.62
2024-04-19T01:55:55.856Z,9.62
2024-04-19T01:59:11.026Z,9.62
2024-04-19T02:02:05.921Z,9.62
2024-04-19T02:04:59.656Z,9.61
2024-04-19T02:07:54.471Z,9.59
2024-04-19T02:10:46.308Z,9.58
2024-04-19T02:13:38.213Z,9.57
2024-04-19T02:16:34.980Z,9.55
2024-04-19T02:19:26.840Z,9.54
2024-04-19T02:22:18.740Z,9.53
2024-04-19T02:25:10.786Z,9.49
2024-04-19T02:28:24.054Z,9.49
2024-04-19T02:31:15.951Z,9.48
2024-04-19T02:34:08.153Z,9.44
2024-04-19T02:36:59.978Z,9.39
2024-04-19T02:39:54.186Z,9.35
2024-04-19T02:42:46.380Z,9.34
2024-04-19T02:45:58.799Z,9.34
2024-04-19T02:48:52.549Z,9.36
2024-04-19T02:51:47.493Z,9.38
2024-04-19T02:54:39.491Z,9.39
2024-04-19T02:57:39.262Z,9.41
2024-04-19T03:00:31.212Z,9.42
2024-04-19T03:03:25.820Z,9.44
2024-04-19T03:06:31.862Z,9.48
2024-04-19T03:09:23.755Z,9.49
2024-04-19T03:12:18.572Z,9.50
2024-04-19T03:15:11.457Z,9.50
2024-04-19T03:18:03.629Z,9.52
2024-04-19T03:21:02.117Z,9.55
2024-04-19T03:24:00.431Z,9.56
2024-04-19T03:26:59.517Z,9.58
2024-04-19T03:29:54.174Z,9.58
2024-04-19T03:32:47.375Z,9.59
2024-04-19T03:35:43.369Z,9.60
2024-04-19T03:38:35.324Z,9.61
2024-04-19T03:41:29.802Z,9.60
2024-04-19T03:44:42.017Z,9.60
2024-04-19T03:47:50.536Z,9.61
2024-04-19T03:50:44.856Z,9.62
2024-04-19T03:53:36.658Z,9.62
2024-04-19T03:56:29.220Z,9.63
2024-04-19T03:59:21.125Z,9.63
2024-04-19T04:02:12.861Z,9.64
2024-04-19T04:05:18.775Z,9.64
2024-04-19T04:08:19.569Z,9.65
2024-04-19T04:11:13.534Z,9.65
2024-04-19T04:14:05.267Z,9.63
2024-04-19T04:17:00.285Z,9.59
2024-04-19T04:20:04.615Z,9.56
2024-04-19T04:22:56.065Z,9.54
2024-04-19T04:25:47.873Z,9.53
2024-04-19T04:28:39.601Z,9.54
2024-04-19T04:31:31.414Z,9.53
2024-04-19T04:34:33.708Z,9.54
2024-04-19T04:37:25.454Z,9.54
2024-04-19T04:40:20.544Z,9.55
2024-04-19T04:43:14.703Z,9.55
2024-04-19T04:46:06.276Z,9.55
2024-04-19T04:48:58.219Z,9.57
2024-04-19T04:51:50.269Z,9.57
2024-04-19T04:54:44.941Z,9.58
2024-04-19T04:57:39.498Z,9.59
2024-04-19T05:00:31.781Z,9.60
2024-04-19T05:03:23.782Z,9.61
2024-04-19T05:06:18.384Z,9.61
2024-04-19T05:09:10.420Z,9.62
2024-04-19T05:12:02.182Z,9.63
2024-04-19T05:14:54.149Z,9.64
2024-04-19T05:17:46.085Z,9.67
2024-04-19T05:20:38.117Z,9.68
2024-04-19T05:23:30.116Z,9.71
2024-04-19T05:26:21.984Z,9.72
2024-04-19T05:29:15.615Z,9.71
2024-04-19T05:32:08.469Z,9.73
2024-04-19T05:35:00.340Z,9.73
2024-04-19T05:37:55.971Z,9.76
2024-04-19T05:40:48.678Z,9.78
2024-04-19T05:43:40.568Z,9.79
2024-04-19T05:46:32.233Z,9.81
2024-04-19T05:49:24.062Z,9.83
2024-04-19T05:52:15.806Z,9.87
2024-04-19T05:55:08.075Z,9.91
2024-04-19T05:58:07.657Z,9.95
2024-04-19T06:00:59.829Z,9.97
2024-04-19T06:03:55.572Z,9.97
2024-04-19T06:06:47.348Z,9.98
2024-04-19T06:09:39.157Z,9.99
2024-04-19T06:12:30.984Z,9.99
2024-04-19T06:15:22.759Z,10.00
2024-04-19T06:18:14.751Z,10.02
2024-04-19T06:21:07.165Z,10.06
2024-04-19T06:23:58.969Z,10.08
2024-04-19T06:26:51.498Z,10.11
2024-04-19T06:29:43.426Z,10.14
2024-04-19T06:32:35.337Z,10.20
2024-04-19T06:35:27.397Z,10.26
2024-04-19T06:38:19.435Z,10.31
2024-04-19T06:41:11.364Z,10.35
2024-04-19T06:44:03.794Z,10.38
2024-04-19T06:46:56.011Z,10.39
2024-04-19T06:49:48.047Z,10.41
2024-04-19T06:52:39.869Z,10.46
2024-04-19T06:55:31.588Z,10.48
2024-04-19T06:58:23.597Z,10.50
2024-04-19T07:01:18.313Z,10.48
2024-04-19T07:04:10.999Z,10.51
2024-04-19T07:07:02.987Z,10.53
2024-04-19T07:09:55.985Z,10.55
2024-04-19T07:12:47.668Z,10.57
2024-04-19T07:15:40.565Z,10.58
2024-04-19T07:18:32.682Z,10.61
2024-04-19T07:21:24.455Z,10.64
2024-04-19T07:24:16.245Z,10.67
2024-04-19T07:27:11.612Z,10.75
2024-04-19T07:30:03.595Z,10.82
2024-04-19T07:32:55.677Z,10.87
2024-04-19T07:35:47.911Z,10.91
2024-04-19T07:38:43.636Z,10.98
2024-04-19T07:41:37.116Z,11.00
2024-04-19T07:44:28.811Z,11.04
2024-04-19T07:47:20.853Z,11.11
2024-04-19T07:50:12.947Z,11.21
2024-04-19T07:53:05.312Z,11.24
2024-04-19T07:55:57.271Z,11.25
2024-04-19T07:58:48.978Z,11.31
2024-04-19T08:01:41.495Z,11.43
2024-04-19T08:04:33.873Z,11.56
2024-04-19T08:07:31.857Z,11.70
2024-04-19T08:10:33.059Z,11.76
2024-04-19T08:13:26.479Z,11.78
2024-04-19T08:16:18.224Z,11.81
2024-04-19T08:19:11.369Z,11.84
2024-04-19T08:22:03.324Z,11.79
2024-04-19T08:24:55.790Z,11.71
2024-04-19T08:27:47.949Z,11.67
2024-04-19T08:30:39.901Z,11.61
2024-04-19T08:33:32.373Z,11.54
2024-04-19T08:36:24.981Z,11.48
2024-04-19T08:39:16.948Z,11.39
2024-04-19T08:42:11.309Z,11.29
2024-04-19T08:45:06.437Z,11.23
2024-04-19T08:48:00.668Z,11.18
2024-04-19T08:50:56.014Z,11.08
2024-04-19T08:53:48.992Z,11.02
2024-04-19T08:56:44.772Z,10.98
2024-04-19T08:59:36.526Z,10.95
2024-04-19T09:02:28.374Z,10.95
2024-04-19T09:05:23.531Z,10.97
2024-04-19T09:08:21.797Z,11.01
2024-04-19T09:11:19.352Z,11.01
2024-04-19T09:14:19.290Z,11.10
2024-04-19T09:17:10.846Z,11.21
2024-04-19T09:20:02.772Z,11.34
2024-04-19T09:22:54.630Z,11.56
2024-04-19T09:25:46.427Z,11.74
2024-04-19T09:28:38.772Z,11.77
2024-04-19T09:31:31.880Z,11.77
2024-04-19T09:34:31.208Z,11.69
2024-04-19T09:37:25.062Z,11.65
2024-04-19T09:40:17.413Z,11.63
2024-04-19T09:43:10.722Z,11.60
2024-04-19T09:46:05.695Z,11.65
2024-04-19T09:49:03.145Z,11.86
2024-04-19T09:51:55.157Z,12.45
2024-04-19T09:54:51.285Z,13.27
2024-04-19T09:57:47.216Z,13.66
2024-04-19T10:00:47.475Z,13.86
2024-04-19T10:03:38.117Z,13.91
2024-04-19T10:06:37.848Z,13.73
2024-04-19T10:09:29.977Z,13.62
2024-04-19T10:12:22.552Z,13.60
2024-04-19T10:15:14.866Z,13.55
2024-04-19T10:18:08.139Z,13.46
2024-04-19T10:21:01.444Z,13.33
2024-04-19T10:23:53.392Z,13.55
2024-04-19T10:26:45.995Z,14.16
2024-04-19T10:29:38.832Z,14.27
2024-04-19T10:32:31.988Z,14.34
2024-04-19T10:35:23.952Z,16.35
2024-04-19T10:38:17.005Z,18.18
2024-04-19T10:41:17.347Z,18.66
2024-04-19T10:44:18.213Z,18.73
2024-04-19T10:47:10.259Z,17.97
2024-04-19T10:50:02.702Z,17.09
2024-04-19T10:52:56.083Z,16.65
2024-04-19T10:55:49.277Z,16.96
2024-04-19T11:27:40.578Z,15.21
2024-04-19T11:30:39.310Z,15.36
2024-04-19T11:33:29.687Z,15.09
2024-04-19T11:36:19.416Z,14.85
2024-04-19T11:39:08.964Z,14.62
2024-04-19T11:41:58.651Z,15.42
2024-04-19T11:44:48.294Z,17.38
2024-04-19T11:47:37.817Z,19.35
2024-04-19T11:50:27.628Z,20.62
2024-04-19T11:53:17.203Z,22.10
2024-04-19T11:56:07.793Z,22.44
2024-04-19T11:58:57.210Z,22.00
2024-04-19T12:01:46.760Z,21.56
2024-04-19T12:04:37.181Z,21.00
2024-04-19T12:07:27.868Z,20.36
2024-04-19T12:10:18.199Z,19.60
2024-04-19T12:13:49.926Z,18.74
2024-04-19T12:16:37.328Z,18.03
2024-04-19T12:19:28.021Z,17.52
2024-04-19T12:22:19.107Z,17.24
2024-04-19T12:25:10.490Z,17.21
2024-04-19T12:27:59.799Z,17.98
2024-04-19T12:30:49.617Z,19.84
2024-04-19T12:33:39.731Z,20.98
2024-04-19T12:36:29.509Z,21.44
2024-04-19T12:39:18.946Z,23.49
2024-04-19T12:42:08.913Z,25.95
2024-04-19T12:44:58.481Z,28.08
2024-04-19T12:47:47.114Z,29.12
2024-04-19T12:50:37.514Z,27.63
2024-04-19T12:53:26.660Z,25.43
2024-04-19T12:56:17.029Z,24.29
2024-04-19T12:59:06.541Z,23.81
2024-04-19T13:01:56.092Z,23.42
2024-04-19T13:04:45.644Z,22.80
2024-04-19T13:07:35.178Z,22.16
2024-04-19T13:10:24.936Z,21.98
2024-04-19T13:13:15.662Z,20.99
2024-04-19T13:16:06.624Z,20.32
2024-04-19T13:18:56.639Z,20.45
2024-04-19T13:21:46.290Z,20.21
2024-04-19T13:24:35.859Z,19.38
2024-04-19T13:27:25.611Z,18.71
2024-04-19T13:30:15.173Z,18.17
2024-04-19T13:33:05.694Z,17.71
2024-04-19T13:35:55.391Z,17.22
2024-04-19T13:38:45.728Z,16.89
2024-04-19T13:41:35.941Z,16.64
2024-04-19T13:44:24.592Z,16.36
2024-04-19T13:47:14.663Z,15.81
2024-04-19T13:50:05.861Z,15.14
2024-04-19T13:52:55.718Z,14.56
2024-04-19T13:55:44.169Z,14.09
2024-04-19T13:58:38.079Z,13.85
2024-04-19T14:01:31.255Z,13.77
2024-04-19T14:04:20.976Z,13.85
2024-04-19T14:07:10.665Z,14.06
2024-04-19T14:10:00.657Z,14.31
2024-04-19T14:12:52.633Z,14.71
2024-04-19T14:15:44.343Z,15.26
2024-04-19T14:18:34.066Z,15.53
2024-04-19T14:21:23.747Z,15.50
2024-04-19T14:24:13.195Z,15.92
2024-04-19T14:27:03.217Z,16.14
2024-04-19T14:29:54.280Z,16.36
2024-04-19T14:32:44.089Z,16.70
2024-04-19T14:35:37.226Z,17.20
2024-04-19T14:38:27.648Z,17.57
2024-04-19T14:41:17.148Z,17.78
2024-04-19T14:44:06.718Z,18.23
2024-04-19T14:46:56.175Z,18.53
2024-04-19T14:49:45.902Z,19.00
2024-04-19T14:52:35.884Z,19.50
2024-04-19T14:55:26.092Z,19.83
2024-04-19T14:58:15.675Z,19.73
2024-04-19T15:01:05.533Z,19.31
2024-04-19T15:03:55.216Z,19.03
2024-04-19T15:06:45.086Z,18.83
2024-04-19T15:09:35.264Z,18.43
2024-04-19T15:12:24.730Z,18.02
2024-04-19T15:15:15.045Z,17.51
2024-04-19T15:18:05.859Z,17.32
2024-04-19T15:20:57.913Z,17.24
2024-04-19T15:23:47.621Z,17.36
2024-04-19T15:26:37.290Z,17.35
2024-04-19T15:29:56.297Z,17.43
2024-04-19T15:32:47.063Z,17.56
2024-04-19T15:35:38.427Z,17.61
2024-04-19T15:38:28.491Z,17.72
2024-04-19T15:41:19.601Z,17.86
2024-04-19T15:44:09.332Z,18.03
2024-04-19T15:46:59.093Z,18.16
2024-04-19T15:49:50.775Z,18.17
2024-04-19T15:52:40.061Z,18.10
2024-04-19T15:55:32.975Z,18.09
2024-04-19T15:58:22.882Z,18.00
2024-04-19T16:01:12.602Z,17.96
2024-04-19T16:04:02.431Z,17.71
2024-04-19T16:06:55.422Z,17.43
2024-04-19T16:09:45.065Z,17.18
2024-04-19T16:12:34.944Z,16.99
2024-04-19T16:15:24.953Z,16.82
2024-04-19T16:18:19.658Z,16.61
2024-04-19T16:21:15.414Z,16.60
2024-04-19T16:24:10.813Z,16.68
2024-04-19T16:27:01.995Z,16.66
2024-04-19T16:29:54.123Z,16.67
2024-04-19T16:32:43.901Z,16.65
2024-04-19T16:35:37.309Z,16.61
2024-04-19T16:38:31.891Z,16.59
2024-04-19T16:41:21.434Z,16.53
2024-04-19T16:44:11.171Z,16.44
2024-04-19T16:47:01.024Z,16.39
2024-04-19T16:49:50.675Z,16.38
2024-04-19T16:52:40.299Z,16.40
2024-04-19T16:55:29.659Z,16.39
2024-04-19T16:58:19.674Z,16.19
2024-04-19T17:01:09.761Z,15.99
2024-04-19T17:03:59.290Z,15.80
2024-04-19T17:06:52.744Z,15.73
2024-04-19T17:09:44.091Z,15.60
2024-04-19T17:12:33.522Z,15.47
2024-04-19T17:15:23.264Z,15.35
2024-04-19T17:18:12.809Z,15.19
2024-04-19T17:21:05.065Z,15.03
2024-04-19T17:23:54.473Z,14.93
2024-04-19T17:26:44.012Z,14.93
2024-04-19T17:29:36.048Z,14.94
2024-04-19T17:32:25.512Z,15.06
2024-04-19T17:35:15.546Z,15.33
2024-04-19T17:38:05.523Z,15.57
2024-04-19T17:41:03.279Z,15.71
2024-04-19T17:43:52.459Z,15.71
2024-04-19T17:46:41.887Z,15.64
2024-04-19T17:49:31.446Z,15.44
2024-04-19T17:52:21.625Z,15.19
2024-04-19T17:55:11.346Z,15.03
2024-04-19T17:58:00.936Z,14.89
2024-04-19T18:00:51.328Z,14.82
2024-04-19T18:03:40.848Z,14.82
2024-04-19T18:06:30.277Z,14.80
2024-04-19T18:09:20.281Z,14.78
2024-04-19T18:12:10.208Z,14.74
2024-04-19T18:14:59.612Z,14.69
2024-04-19T18:17:51.206Z,14.59
2024-04-19T18:20:41.007Z,14.50
2024-04-19T18:23:32.226Z,14.38
2024-04-19T18:26:21.695Z,14.22
2024-04-19T18:29:11.145Z,14.08
2024-04-19T18:32:05.409Z,13.93
2024-04-19T18:34:55.013Z,13.80
2024-04-19T18:37:44.950Z,13.68
2024-04-19T18:40:34.169Z,13.56
2024-04-19T18:43:24.310Z,13.42
2024-04-19T18:46:14.638Z,13.30
2024-04-19T18:49:04.123Z,13.18
2024-04-19T18:51:56.894Z,13.06
2024-04-19T18:54:46.384Z,12.96
2024-04-19T18:57:36.772Z,12.87
2024-04-19T19:00:25.330Z,12.81
2024-04-19T19:03:14.754Z,12.72
2024-04-19T19:06:04.624Z,12.65
2024-04-19T19:08:54.133Z,12.59
2024-04-19T19:11:43.633Z,12.52
2024-04-19T19:14:35.175Z,12.43
2024-04-19T19:17:26.247Z,12.37
2024-04-19T19:20:17.810Z,12.32
2024-04-19T19:23:07.256Z,12.25
2024-04-19T19:25:58.023Z,12.17
2024-04-19T19:28:48.448Z,12.09
2024-04-19T19:31:39.992Z,12.01
2024-04-19T19:34:32.667Z,11.93
2024-04-19T19:37:21.789Z,11.88
2024-04-19T19:40:12.122Z,11.82
2024-04-19T19:43:00.612Z,11.75
2024-04-19T19:45:54.906Z,11.66
2024-04-19T19:48:45.610Z,11.59
2024-04-19T19:51:38.667Z,11.51
2024-04-19T19:54:29.185Z,11.44
2024-04-19T19:57:19.752Z,11.38
2024-04-19T20:00:29.627Z,11.31
2024-04-19T20:03:37.351Z,11.24
2024-04-19T20:06:27.232Z,11.17
2024-04-19T20:09:20.425Z,11.09
2024-04-19T20:12:10.109Z,11.03
2024-04-19T20:14:59.861Z,10.98
2024-04-19T20:17:49.396Z,10.93
2024-04-19T20:20:42.953Z,10.88
2024-04-19T20:23:32.600Z,10.85
2024-04-19T20:26:22.078Z,10.82
2024-04-19T20:29:15.319Z,10.80
2024-04-19T20:32:08.725Z,10.76
2024-04-19T20:34:59.013Z,10.71
2024-04-19T20:37:48.453Z,10.68
2024-04-19T20:40:37.975Z,10.64
2024-04-19T20:43:27.434Z,10.60
2024-04-19T20:46:16.893Z,10.54
2024-04-19T20:49:07.083Z,10.51
2024-04-19T20:51:56.587Z,10.45
2024-04-19T20:54:47.314Z,10.38
2024-04-19T20:57:36.830Z,10.34
2024-04-19T21:00:26.395Z,10.30
2024-04-19T21:03:15.891Z,10.25
2024-04-19T21:06:06.022Z,10.23
2024-04-19T21:08:55.472Z,10.20
2024-04-19T21:11:44.947Z,10.17
2024-04-19T21:14:34.747Z,10.12
2024-04-19T21:17:25.110Z,10.07
2024-04-19T21:20:14.276Z,10.03
2024-04-19T21:23:03.768Z,9.98
2024-04-19T21:25:53.492Z,9.92
2024-04-19T21:28:42.992Z,9.87
2024-04-19T21:31:32.663Z,9.85
2024-04-19T21:34:22.190Z,9.83
2024-04-19T21:37:11.673Z,9.81
2024-04-19T21:40:01.220Z,9.76
2024-04-19T21:42:52.253Z,9.70
2024-04-19T21:45:43.197Z,9.67
2024-04-19T21:48:33.263Z,9.64
2024-04-19T21:51:22.366Z,9.64
2024-04-19T21:54:11.846Z,9.65
2024-04-19T21:57:01.482Z,9.65
2024-04-19T21:59:51.014Z,9.62
2024-04-19T22:02:40.558Z,9.60
2024-04-19T22:05:30.140Z,9.56
2024-04-19T22:08:19.779Z,9.52
2024-04-19T22:11:09.391Z,9.49
2024-04-19T22:13:58.926Z,9.47
2024-04-19T22:16:48.486Z,9.44
2024-04-19T22:19:38.695Z,9.42
2024-04-19T22:22:27.771Z,9.37
2024-04-19T22:25:17.367Z,9.32
2024-04-19T22:28:08.139Z,9.28
2024-04-19T22:31:01.113Z,9.24
2024-04-19T22:33:51.710Z,9.19
2024-04-19T22:36:41.313Z,9.13
2024-04-19T22:39:33.473Z,9.09
2024-04-19T22:42:23.844Z,9.04
2024-04-19T22:45:13.366Z,8.98
2024-04-19T22:48:02.860Z,8.93
2024-04-19T22:50:52.372Z,8.88
2024-04-19T22:53:41.882Z,8.86
2024-04-19T22:56:31.584Z,8.84
2024-04-19T22:59:21.151Z,8.84
2024-04-19T23:02:10.729Z,8.84
2024-04-19T23:05:03.507Z,8.82
2024-04-19T23:07:53.040Z,8.79
2024-04-19T23:10:42.524Z,8.79
2024-04-19T23:13:32.091Z,8.79
2024-04-19T23:16:21.606Z,8.77
2024-04-19T23:19:11.131Z,8.75
2024-04-19T23:22:00.666Z,8.74
2024-04-19T23:24:50.289Z,8.73
2024-04-19T23:27:41.003Z,8.70
2024-04-19T23:30:30.679Z,8.64
2024-04-19T23:33:20.239Z,8.59
2024-04-19T23:36:10.163Z,8.55
2024-04-19T23:38:59.675Z,8.51
2024-04-19T23:41:49.291Z,8.46
2024-04-19T23:44:38.751Z,8.43
2024-04-19T23:47:30.473Z,8.38
2024-04-19T23:50:22.288Z,8.34
2024-04-19T23:53:11.790Z,8.29
2024-04-19T23:56:04.243Z,8.26
2024-04-19T23:58:53.652Z,8.24
